createdAt,value
2024-03-12T00:00:51.457Z,886.00
2024-03-12T00:01:51.272Z,874.00
2024-03-12T00:02:51.282Z,889.00
2024-03-12T00:03:51.390Z,881.00
2024-03-12T00:04:51.382Z,895.00
2024-03-12T00:05:51.308Z,892.00
2024-03-12T00:06:51.404Z,889.00
2024-03-12T00:07:51.545Z,883.00
2024-03-12T00:08:51.393Z,892.00
2024-03-12T00:09:51.391Z,887.00
2024-03-12T00:10:51.416Z,893.00
2024-03-12T00:11:51.436Z,888.00
2024-03-12T00:12:51.542Z,882.00
2024-03-12T00:13:51.435Z,889.00
2024-03-12T00:14:51.486Z,892.00
2024-03-12T00:15:51.611Z,887.00
2024-03-12T00:16:51.498Z,892.00
2024-03-12T00:17:51.590Z,892.00
2024-03-12T00:18:51.592Z,888.00
2024-03-12T00:19:51.585Z,894.00
2024-03-12T00:20:51.646Z,896.00
2024-03-12T00:21:51.577Z,893.00
2024-03-12T00:22:51.613Z,896.00
2024-03-12T00:23:51.648Z,895.00
2024-03-12T00:24:51.659Z,885.00
2024-03-12T00:25:51.704Z,897.00
2024-03-12T00:26:51.709Z,892.00
2024-03-12T00:27:51.869Z,897.00
2024-03-12T00:28:51.751Z,896.00
2024-03-12T00:29:51.780Z,897.00
2024-03-12T00:30:51.888Z,894.00
2024-03-12T00:31:51.798Z,902.00
2024-03-12T00:32:51.815Z,895.00
2024-03-12T00:33:51.849Z,898.00
2024-03-12T00:34:51.857Z,905.00
2024-03-12T00:35:51.831Z,900.00
2024-03-12T00:36:51.889Z,897.00
2024-03-12T00:37:51.893Z,894.00
2024-03-12T00:38:51.957Z,902.00
2024-03-12T00:39:52.008Z,900.00
2024-03-12T00:40:51.968Z,902.00
2024-03-12T00:41:52.047Z,902.00
2024-03-12T00:42:52.082Z,889.00
2024-03-12T00:43:52.033Z,902.00
2024-03-12T00:44:52.050Z,912.00
2024-03-12T00:45:52.178Z,906.00
2024-03-12T00:46:52.057Z,903.00
2024-03-12T00:47:52.215Z,906.00
2024-03-12T00:48:52.185Z,902.00
2024-03-12T00:49:52.140Z,903.00
2024-03-12T00:50:52.172Z,904.00
2024-03-12T00:51:52.202Z,904.00
2024-03-12T00:52:52.188Z,904.00
2024-03-12T00:53:52.219Z,906.00
2024-03-12T00:54:52.273Z,908.00
2024-03-12T00:55:52.304Z,908.00
2024-03-12T00:56:52.285Z,912.00
2024-03-12T00:57:52.344Z,908.00
2024-03-12T00:58:52.300Z,904.00
2024-03-12T00:59:52.369Z,897.00
2024-03-12T01:00:52.498Z,900.00
2024-03-12T01:01:52.414Z,903.00
2024-03-12T01:02:52.424Z,914.00
2024-03-12T01:03:52.461Z,906.00
2024-03-12T01:04:52.458Z,907.00
2024-03-12T01:05:52.569Z,906.00
2024-03-12T01:06:52.560Z,900.00
2024-03-12T01:07:52.578Z,913.00
2024-03-12T01:08:52.591Z,910.00
2024-03-12T01:09:52.635Z,900.00
2024-03-12T01:10:52.742Z,914.00
2024-03-12T01:11:52.658Z,901.00
2024-03-12T01:12:52.771Z,906.00
2024-03-12T01:13:52.708Z,904.00
2024-03-12T01:14:52.712Z,911.00
2024-03-12T01:15:52.767Z,903.00
2024-03-12T01:16:52.857Z,911.00
2024-03-12T01:17:52.887Z,902.00
2024-03-12T01:18:52.914Z,919.00
2024-03-12T01:19:52.834Z,903.00
2024-03-12T01:20:52.909Z,914.00
2024-03-12T01:21:52.964Z,908.00
2024-03-12T01:22:52.986Z,916.00
2024-03-12T01:23:52.984Z,912.00
2024-03-12T01:24:53.117Z,913.00
2024-03-12T01:25:53.043Z,915.00
2024-03-12T01:26:53.093Z,910.00
2024-03-12T01:27:53.216Z,899.00
2024-03-12T01:28:53.120Z,916.00
2024-03-12T01:29:53.146Z,910.00
2024-03-12T01:30:53.263Z,907.00
2024-03-12T01:31:53.254Z,913.00
2024-03-12T01:32:53.311Z,909.00
2024-03-12T01:33:53.299Z,917.00
2024-03-12T01:34:53.285Z,913.00
2024-03-12T01:35:53.394Z,914.00
2024-03-12T01:36:53.419Z,916.00
2024-03-12T01:37:53.525Z,914.00
2024-03-12T01:38:53.449Z,908.00
2024-03-12T01:39:53.465Z,917.00
2024-03-12T01:40:53.531Z,907.00
2024-03-12T01:41:53.509Z,914.00
2024-03-12T01:42:53.575Z,909.00
2024-03-12T01:43:53.579Z,917.00
2024-03-12T01:44:53.596Z,918.00
2024-03-12T01:45:53.644Z,917.00
2024-03-12T01:46:53.606Z,920.00
2024-03-12T01:47:53.720Z,917.00
2024-03-12T01:48:53.745Z,909.00
2024-03-12T01:49:53.704Z,916.00
2024-03-12T01:50:53.725Z,914.00
2024-03-12T01:51:53.792Z,921.00
2024-03-12T01:52:53.844Z,921.00
2024-03-12T01:53:54.242Z,918.00
2024-03-12T01:54:53.900Z,918.00
2024-03-12T01:55:53.875Z,913.00
2024-03-12T01:56:53.858Z,916.00
2024-03-12T01:57:53.994Z,918.00
2024-03-12T01:58:53.992Z,925.00
2024-03-12T01:59:53.984Z,925.00
2024-03-12T02:00:54.252Z,917.00
2024-03-12T02:01:54.136Z,916.00
2024-03-12T02:02:54.206Z,922.00
2024-03-12T02:03:54.141Z,921.00
2024-03-12T02:04:54.179Z,920.00
2024-03-12T02:05:54.241Z,917.00
2024-03-12T02:06:54.250Z,916.00
2024-03-12T02:07:54.261Z,916.00
2024-03-12T02:08:54.325Z,919.00
2024-03-12T02:09:54.353Z,917.00
2024-03-12T02:10:54.431Z,918.00
2024-03-12T02:11:54.437Z,922.00
2024-03-12T02:12:54.496Z,905.00
2024-03-12T02:13:54.435Z,919.00
2024-03-12T02:14:54.484Z,920.00
2024-03-12T02:15:54.526Z,919.00
2024-03-12T02:16:54.586Z,922.00
2024-03-12T02:17:54.806Z,913.00
2024-03-12T02:18:54.652Z,917.00
2024-03-12T02:19:54.718Z,913.00
2024-03-12T02:20:54.712Z,921.00
2024-03-12T02:21:54.841Z,922.00
2024-03-12T02:22:54.783Z,923.00
2024-03-12T02:23:54.830Z,919.00
2024-03-12T02:24:54.900Z,924.00
2024-03-12T02:25:54.885Z,925.00
2024-03-12T02:26:54.958Z,922.00
2024-03-12T02:27:55.040Z,932.00
2024-03-12T02:28:55.002Z,922.00
2024-03-12T02:29:55.029Z,933.00
2024-03-12T02:30:55.182Z,922.00
2024-03-12T02:31:55.194Z,935.00
2024-03-12T02:32:55.143Z,926.00
2024-03-12T02:33:55.232Z,924.00
2024-03-12T02:34:55.167Z,927.00
2024-03-12T02:35:55.264Z,928.00
2024-03-12T02:36:55.308Z,927.00
2024-03-12T02:37:55.354Z,926.00
2024-03-12T02:38:55.381Z,927.00
2024-03-12T02:39:55.448Z,921.00
2024-03-12T02:40:55.453Z,930.00
2024-03-12T02:41:55.469Z,922.00
2024-03-12T02:42:55.556Z,919.00
2024-03-12T02:43:55.580Z,921.00
2024-03-12T02:44:55.584Z,923.00
2024-03-12T02:45:55.640Z,921.00
2024-03-12T02:46:55.607Z,925.00
2024-03-12T02:47:55.686Z,915.00
2024-03-12T02:48:55.760Z,924.00
2024-03-12T02:49:55.760Z,923.00
2024-03-12T02:50:55.860Z,928.00
2024-03-12T02:51:55.915Z,926.00
2024-03-12T02:52:55.884Z,930.00
2024-03-12T02:53:55.896Z,925.00
2024-03-12T02:54:55.981Z,920.00
2024-03-12T02:55:55.981Z,931.00
2024-03-12T02:56:56.032Z,922.00
2024-03-12T02:57:56.040Z,928.00
2024-03-12T02:58:56.097Z,931.00
2024-03-12T02:59:56.104Z,936.00
2024-03-12T03:00:56.207Z,921.00
2024-03-12T03:01:56.234Z,932.00
2024-03-12T03:02:56.168Z,928.00
2024-03-12T03:03:56.274Z,930.00
2024-03-12T03:04:56.300Z,931.00
2024-03-12T03:05:56.355Z,931.00
2024-03-12T03:06:56.345Z,933.00
2024-03-12T03:07:56.392Z,927.00
2024-03-12T03:08:56.429Z,930.00
2024-03-12T03:09:56.503Z,929.00
2024-03-12T03:10:56.573Z,933.00
2024-03-12T03:11:56.532Z,925.00
2024-03-12T03:12:56.549Z,927.00
2024-03-12T03:13:56.592Z,932.00
2024-03-12T03:14:56.622Z,931.00
2024-03-12T03:15:56.706Z,938.00
2024-03-12T03:16:56.680Z,932.00
2024-03-12T03:18:56.770Z,927.00
2024-03-12T03:19:56.801Z,928.00
2024-03-12T03:20:56.809Z,930.00
2024-03-12T03:21:56.867Z,927.00
2024-03-12T03:22:56.928Z,930.00
2024-03-12T03:23:56.925Z,925.00
2024-03-12T03:24:57.090Z,931.00
2024-03-12T03:25:57.006Z,930.00
2024-03-12T03:26:57.050Z,925.00
2024-03-12T03:27:57.138Z,932.00
2024-03-12T03:28:57.113Z,930.00
2024-03-12T03:29:57.156Z,928.00
2024-03-12T03:30:57.200Z,930.00
2024-03-12T03:31:57.190Z,934.00
2024-03-12T03:32:57.272Z,929.00
2024-03-12T03:33:57.342Z,926.00
2024-03-12T03:34:57.306Z,928.00
2024-03-12T03:35:57.362Z,928.00
2024-03-12T03:36:57.481Z,931.00
2024-03-12T03:37:57.412Z,930.00
2024-03-12T03:38:57.500Z,924.00
2024-03-12T03:39:57.548Z,930.00
2024-03-12T03:40:57.563Z,937.00
2024-03-12T03:41:57.724Z,932.00
2024-03-12T03:42:58.028Z,933.00
2024-03-12T03:43:57.647Z,936.00
2024-03-12T03:44:57.741Z,927.00
2024-03-12T03:45:57.758Z,932.00
2024-03-12T03:46:57.800Z,928.00
2024-03-12T03:47:57.893Z,932.00
2024-03-12T03:48:57.873Z,940.00
2024-03-12T03:49:57.932Z,932.00
2024-03-12T03:50:57.908Z,934.00
2024-03-12T03:51:57.983Z,920.00
2024-03-12T03:52:58.057Z,932.00
2024-03-12T03:53:58.136Z,930.00
2024-03-12T03:54:58.197Z,927.00
2024-03-12T03:55:58.129Z,933.00
2024-03-12T03:56:58.166Z,933.00
2024-03-12T03:57:58.262Z,927.00
2024-03-12T03:58:58.240Z,935.00
2024-03-12T03:59:58.351Z,937.00
2024-03-12T04:00:58.355Z,931.00
2024-03-12T04:01:58.378Z,927.00
2024-03-12T04:02:58.387Z,927.00
2024-03-12T04:03:58.449Z,934.00
2024-03-12T04:04:58.443Z,932.00
2024-03-12T04:05:58.496Z,941.00
2024-03-12T04:06:58.521Z,925.00
2024-03-12T04:07:58.589Z,938.00
2024-03-12T04:08:58.568Z,933.00
2024-03-12T04:09:58.703Z,935.00
2024-03-12T04:10:58.707Z,938.00
2024-03-12T04:11:58.751Z,935.00
2024-03-12T04:12:58.835Z,933.00
2024-03-12T04:13:58.792Z,929.00
2024-03-12T04:14:58.831Z,927.00
2024-03-12T04:15:58.897Z,938.00
2024-03-12T04:16:58.919Z,940.00
2024-03-12T04:17:59.079Z,938.00
2024-03-12T04:18:59.074Z,935.00
2024-03-12T04:19:59.071Z,948.00
2024-03-12T04:20:59.050Z,941.00
2024-03-12T04:21:59.074Z,939.00
2024-03-12T04:22:59.140Z,922.00
2024-03-12T04:23:59.175Z,931.00
2024-03-12T04:24:59.285Z,941.00
2024-03-12T04:25:59.275Z,941.00
2024-03-12T04:26:59.327Z,934.00
2024-03-12T04:27:59.384Z,943.00
2024-03-12T04:28:59.374Z,936.00
2024-03-12T04:29:59.424Z,941.00
2024-03-12T04:30:59.516Z,934.00
2024-03-12T04:31:59.527Z,939.00
2024-03-12T04:32:59.546Z,933.00
2024-03-12T04:33:59.678Z,935.00
2024-03-12T04:34:59.628Z,943.00
2024-03-12T04:35:59.754Z,938.00
2024-03-12T04:36:59.810Z,940.00
2024-03-12T04:37:59.750Z,933.00
2024-03-12T04:38:59.753Z,937.00
2024-03-12T04:39:59.828Z,942.00
2024-03-12T04:40:59.831Z,943.00
2024-03-12T04:42:07.130Z,600.00
2024-03-12T04:43:07.127Z,600.00
2024-03-12T04:44:07.102Z,600.00
2024-03-12T04:45:07.102Z,600.00
2024-03-12T04:46:07.174Z,600.00
2024-03-12T04:47:07.140Z,601.00
2024-03-12T04:48:07.155Z,601.00
2024-03-12T04:49:07.173Z,600.00
2024-03-12T04:50:07.095Z,604.00
2024-03-12T04:51:07.144Z,602.00
2024-03-12T04:52:07.185Z,600.00
2024-03-12T04:53:07.222Z,604.00
2024-03-12T04:54:07.172Z,602.00
2024-03-12T04:55:07.216Z,601.00
2024-03-12T04:56:07.141Z,606.00
2024-03-12T04:57:07.111Z,606.00
2024-03-12T04:58:07.205Z,605.00
2024-03-12T04:59:07.125Z,603.00
2024-03-12T05:00:07.168Z,604.00
2024-03-12T05:01:07.502Z,602.00
2024-03-12T05:02:07.161Z,599.00
2024-03-12T05:03:07.141Z,606.00
2024-03-12T05:04:15.113Z,604.00
2024-03-12T05:05:08.143Z,604.00
2024-03-12T05:06:07.147Z,604.00
2024-03-12T05:07:07.231Z,604.00
2024-03-12T05:08:07.123Z,600.00
2024-03-12T05:09:07.153Z,598.00
2024-03-12T05:10:07.172Z,602.00
2024-03-12T05:11:07.357Z,602.00
2024-03-12T05:12:07.166Z,600.00
2024-03-12T05:13:07.342Z,600.00
2024-03-12T05:14:07.214Z,601.00
2024-03-12T05:15:07.174Z,600.00
2024-03-12T05:16:07.225Z,602.00
2024-03-12T05:17:07.182Z,600.00
2024-03-12T05:18:07.235Z,601.00
2024-03-12T05:19:07.265Z,600.00
2024-03-12T05:20:07.168Z,599.00
2024-03-12T05:21:07.182Z,600.00
2024-03-12T05:22:07.225Z,600.00
2024-03-12T05:23:07.158Z,601.00
2024-03-12T05:24:07.174Z,602.00
2024-03-12T05:25:07.279Z,603.00
2024-03-12T05:26:07.164Z,602.00
2024-03-12T05:27:07.216Z,602.00
2024-03-12T05:28:07.311Z,601.00
2024-03-12T05:29:07.822Z,602.00
2024-03-12T05:30:07.282Z,599.00
2024-03-12T05:31:07.440Z,600.00
2024-03-12T05:32:07.357Z,604.00
2024-03-12T05:33:07.394Z,605.00
2024-03-12T05:34:07.514Z,603.00
2024-03-12T05:35:07.430Z,600.00
2024-03-12T05:36:07.499Z,604.00
2024-03-12T05:37:07.530Z,605.00
2024-03-12T05:38:07.475Z,603.00
2024-03-12T05:39:07.609Z,605.00
2024-03-12T05:40:07.586Z,606.00
2024-03-12T05:41:07.566Z,607.00
2024-03-12T05:42:07.643Z,609.00
2024-03-12T05:43:07.678Z,606.00
2024-03-12T05:44:07.650Z,609.00
2024-03-12T05:45:07.708Z,607.00
2024-03-12T05:46:07.852Z,610.00
2024-03-12T05:47:07.742Z,607.00
2024-03-12T05:48:07.789Z,607.00
2024-03-12T05:49:08.030Z,609.00
2024-03-12T05:50:07.778Z,612.00
2024-03-12T05:51:07.825Z,611.00
2024-03-12T05:52:07.903Z,609.00
2024-03-12T05:53:07.892Z,610.00
2024-03-12T05:54:07.877Z,611.00
2024-03-12T05:55:08.005Z,613.00
2024-03-12T05:56:07.968Z,612.00
2024-03-12T05:57:07.991Z,612.00
2024-03-12T05:58:08.029Z,612.00
2024-03-12T05:59:08.068Z,614.00
2024-03-12T06:00:08.039Z,614.00
2024-03-12T06:01:08.203Z,618.00
2024-03-12T06:02:08.146Z,613.00
2024-03-12T06:03:08.174Z,617.00
2024-03-12T06:04:08.221Z,616.00
2024-03-12T06:05:08.193Z,618.00
2024-03-12T06:06:08.195Z,617.00
2024-03-12T06:07:08.383Z,615.00
2024-03-12T06:08:08.272Z,619.00
2024-03-12T06:09:08.326Z,622.00
2024-03-12T06:10:08.365Z,621.00
2024-03-12T06:11:08.396Z,621.00
2024-03-12T06:12:08.399Z,621.00
2024-03-12T06:13:08.497Z,620.00
2024-03-12T06:14:08.445Z,621.00
2024-03-12T06:15:08.458Z,621.00
2024-03-12T06:16:08.596Z,623.00
2024-03-12T06:17:08.579Z,622.00
2024-03-12T06:18:08.613Z,620.00
2024-03-12T06:19:08.597Z,620.00
2024-03-12T06:20:11.406Z,621.00
2024-03-12T06:21:08.638Z,624.00
2024-03-12T06:22:08.636Z,626.00
2024-03-12T06:23:08.634Z,619.00
2024-03-12T06:24:08.628Z,625.00
2024-03-12T06:25:08.733Z,625.00
2024-03-12T06:26:08.616Z,625.00
2024-03-12T06:27:08.612Z,625.00
2024-03-12T06:28:08.707Z,621.00
2024-03-12T06:29:08.600Z,624.00
2024-03-12T06:30:08.628Z,622.00
2024-03-12T06:31:08.618Z,622.00
2024-03-12T06:32:08.624Z,623.00
2024-03-12T06:33:08.670Z,624.00
2024-03-12T06:34:08.812Z,627.00
2024-03-12T06:35:08.619Z,623.00
2024-03-12T06:36:08.663Z,617.00
2024-03-12T06:37:08.625Z,608.00
2024-03-12T06:38:31.212Z,600.00
2024-03-12T06:39:08.633Z,601.00
2024-03-12T06:40:08.684Z,602.00
2024-03-12T06:41:08.685Z,602.00
2024-03-12T06:42:08.650Z,601.00
2024-03-12T06:43:08.853Z,604.00
2024-03-12T06:44:08.643Z,610.00
2024-03-12T06:45:08.938Z,611.00
2024-03-12T06:46:08.664Z,612.00
2024-03-12T06:47:08.706Z,613.00
2024-03-12T06:48:08.761Z,620.00
2024-03-12T06:49:08.767Z,623.00
2024-03-12T06:50:09.209Z,630.00
2024-03-12T06:51:09.850Z,640.00
2024-03-12T06:52:08.931Z,646.00
2024-03-12T06:53:09.457Z,657.00
2024-03-12T06:54:09.466Z,666.00
2024-03-12T06:55:09.336Z,678.00
2024-03-12T06:56:08.891Z,682.00
2024-03-12T06:57:08.644Z,690.00
2024-03-12T06:58:08.742Z,702.00
2024-03-12T06:59:08.853Z,715.00
2024-03-12T07:00:08.678Z,738.00
2024-03-12T07:01:08.739Z,752.00
2024-03-12T07:02:08.767Z,756.00
2024-03-12T07:03:08.888Z,780.00
2024-03-12T07:04:08.754Z,793.00
2024-03-12T07:05:08.788Z,798.00
2024-03-12T07:06:08.763Z,820.00
2024-03-12T07:07:11.461Z,826.00
2024-03-12T07:08:08.721Z,830.00
2024-03-12T07:09:10.084Z,832.00
2024-03-12T07:10:09.315Z,833.00
2024-03-12T07:11:09.004Z,837.00
2024-03-12T07:12:09.985Z,850.00
2024-03-12T07:13:09.894Z,880.00
2024-03-12T07:14:09.353Z,935.00
2024-03-12T07:15:09.127Z,966.00
2024-03-12T07:16:09.227Z,988.00
2024-03-12T07:17:09.303Z,1007.00
2024-03-12T07:18:09.565Z,1012.00
2024-03-12T07:19:09.462Z,1028.00
2024-03-12T07:20:10.326Z,1043.00
2024-03-12T07:21:12.720Z,1052.00
2024-03-12T07:22:09.579Z,1046.00
2024-03-12T07:23:09.456Z,1045.00
2024-03-12T07:24:09.462Z,1058.00
2024-03-12T07:25:09.509Z,1070.00
2024-03-12T07:26:09.846Z,1043.00
2024-03-12T07:27:09.480Z,1048.00
2024-03-12T07:28:09.599Z,1075.00
2024-03-12T07:29:09.523Z,1085.00
2024-03-12T07:30:09.548Z,1091.00
2024-03-12T07:31:09.544Z,1085.00
2024-03-12T07:32:09.563Z,1094.00
2024-03-12T07:33:09.520Z,1083.00
2024-03-12T07:34:09.633Z,1089.00
2024-03-12T07:35:09.958Z,1078.00
2024-03-12T07:36:09.497Z,1078.00
2024-03-12T07:37:10.014Z,1083.00
2024-03-12T07:38:09.528Z,1089.00
2024-03-12T07:39:09.513Z,1075.00
2024-03-12T07:40:09.947Z,1058.00
2024-03-12T07:41:10.570Z,1055.00
2024-03-12T07:42:11.559Z,1060.00
2024-03-12T07:43:09.600Z,1058.00
2024-03-12T07:44:09.520Z,1038.00
2024-03-12T07:45:09.582Z,1048.00
2024-03-12T07:46:09.553Z,1037.00
2024-03-12T07:47:09.521Z,1027.00
2024-03-12T07:48:12.459Z,1025.00
2024-03-12T07:49:11.239Z,1025.00
2024-03-12T07:50:09.568Z,1025.00
2024-03-12T07:51:09.482Z,1026.00
2024-03-12T07:52:09.630Z,1015.00
2024-03-12T07:53:09.522Z,1030.00
2024-03-12T07:54:09.845Z,1016.00
2024-03-12T07:55:10.506Z,1013.00
2024-03-12T07:56:09.477Z,1024.00
2024-03-12T07:57:09.527Z,1013.00
2024-03-12T07:58:09.557Z,1024.00
2024-03-12T07:59:09.917Z,1012.00
2024-03-12T08:00:09.511Z,1011.00
2024-03-12T08:01:09.593Z,1001.00
2024-03-12T08:02:09.549Z,997.00
2024-03-12T08:03:09.624Z,992.00
2024-03-12T08:04:10.061Z,988.00
2024-03-12T08:05:09.500Z,996.00
2024-03-12T08:06:09.549Z,993.00
2024-03-12T08:07:09.538Z,1000.00
2024-03-12T08:08:09.618Z,1001.00
2024-03-12T08:09:09.564Z,1003.00
2024-03-12T08:10:10.506Z,1003.00
2024-03-12T08:11:09.681Z,994.00
2024-03-12T08:12:10.052Z,996.00
2024-03-12T08:13:10.025Z,997.00
2024-03-12T08:14:09.577Z,994.00
2024-03-12T08:15:10.793Z,987.00
2024-03-12T08:16:09.633Z,991.00
2024-03-12T08:17:09.566Z,988.00
2024-03-12T08:18:17.186Z,984.00
2024-03-12T08:19:10.598Z,985.00
2024-03-12T08:20:09.543Z,987.00
2024-03-12T08:21:12.395Z,986.00
2024-03-12T08:22:11.500Z,995.00
2024-03-12T08:23:11.420Z,985.00
2024-03-12T08:24:09.615Z,986.00
2024-03-12T08:25:09.657Z,984.00
2024-03-12T08:26:09.589Z,987.00
2024-03-12T08:27:09.540Z,991.00
2024-03-12T08:28:24.444Z,986.00
2024-03-12T08:29:09.648Z,986.00
2024-03-12T08:30:09.549Z,988.00
2024-03-12T08:31:18.699Z,987.00
2024-03-12T08:32:10.644Z,986.00
2024-03-12T08:33:10.526Z,986.00
2024-03-12T08:34:10.495Z,970.00
2024-03-12T08:35:09.710Z,952.00
2024-03-12T08:36:09.919Z,899.00
2024-03-12T08:37:09.648Z,908.00
2024-03-12T08:38:10.815Z,885.00
2024-03-12T08:39:10.069Z,869.00
2024-03-12T08:40:09.704Z,845.00
2024-03-12T08:41:10.003Z,824.00
2024-03-12T08:42:09.760Z,825.00
2024-03-12T08:43:09.655Z,804.00
2024-03-12T08:44:09.568Z,807.00
2024-03-12T08:45:09.726Z,802.00
2024-03-12T08:46:10.131Z,813.00
2024-03-12T08:47:09.598Z,805.00
2024-03-12T08:48:10.879Z,801.00
2024-03-12T08:49:10.013Z,783.00
2024-03-12T08:50:09.794Z,794.00
2024-03-12T08:51:10.888Z,795.00
2024-03-12T08:52:10.704Z,790.00
2024-03-12T08:53:15.968Z,796.00
2024-03-12T08:54:10.470Z,795.00
2024-03-12T08:55:15.517Z,796.00
2024-03-12T08:56:11.539Z,795.00
2024-03-12T08:57:09.753Z,799.00
2024-03-12T08:58:11.442Z,801.00
2024-03-12T08:59:09.994Z,808.00
2024-03-12T09:00:09.772Z,823.00
2024-03-12T09:01:09.904Z,815.00
2024-03-12T09:02:09.828Z,811.00
2024-03-12T09:03:09.800Z,809.00
2024-03-12T09:04:11.641Z,812.00
2024-03-12T09:05:09.844Z,817.00
2024-03-12T09:06:09.830Z,803.00
2024-03-12T09:07:10.471Z,808.00
2024-03-12T09:08:09.933Z,809.00
2024-03-12T09:09:21.036Z,809.00
2024-03-12T09:10:10.531Z,810.00
2024-03-12T09:11:11.956Z,812.00
2024-03-12T09:12:09.966Z,810.00
2024-03-12T09:13:10.032Z,817.00
2024-03-12T09:14:10.187Z,814.00
2024-03-12T09:15:10.834Z,801.00
2024-03-12T09:16:10.047Z,790.00
2024-03-12T09:17:09.916Z,790.00
2024-03-12T09:18:09.960Z,783.00
2024-03-12T09:19:10.097Z,766.00
2024-03-12T09:20:09.904Z,770.00
2024-03-12T09:21:09.947Z,781.00
2024-03-12T09:22:10.029Z,777.00
2024-03-12T09:23:10.277Z,766.00
2024-03-12T09:24:09.971Z,766.00
2024-03-12T09:25:11.164Z,755.00
2024-03-12T09:26:09.990Z,774.00
2024-03-12T09:27:10.070Z,769.00
2024-03-12T09:28:10.577Z,733.00
2024-03-12T09:29:10.089Z,731.00
2024-03-12T09:30:10.095Z,713.00
2024-03-12T09:31:10.365Z,703.00
2024-03-12T09:32:10.959Z,663.00
2024-03-12T09:33:10.256Z,651.00
2024-03-12T09:34:10.275Z,632.00
2024-03-12T09:35:10.311Z,620.00
2024-03-12T09:36:10.346Z,612.00
2024-03-12T09:37:12.020Z,600.00
2024-03-12T09:38:10.727Z,597.00
2024-03-12T09:39:10.538Z,603.00
2024-03-12T09:40:10.687Z,599.00
2024-03-12T09:41:10.565Z,600.00
2024-03-12T09:42:10.537Z,600.00
2024-03-12T09:43:11.945Z,602.00
2024-03-12T09:44:10.656Z,602.00
2024-03-12T09:45:11.528Z,603.00
2024-03-12T09:46:11.085Z,609.00
2024-03-12T09:47:17.450Z,613.00
2024-03-12T09:48:10.898Z,613.00
2024-03-12T09:49:17.493Z,613.00
2024-03-12T09:50:10.761Z,614.00
2024-03-12T09:51:10.952Z,616.00
2024-03-12T09:52:13.461Z,620.00
2024-03-12T09:53:10.846Z,614.00
2024-03-12T09:54:10.855Z,618.00
2024-03-12T09:55:11.106Z,624.00
2024-03-12T09:56:11.046Z,632.00
2024-03-12T09:57:13.045Z,647.00
2024-03-12T09:58:10.997Z,615.00
2024-03-12T09:59:10.833Z,621.00
2024-03-12T10:00:12.433Z,632.00
2024-03-12T10:01:11.589Z,650.00
2024-03-12T10:02:11.000Z,682.00
2024-03-12T10:03:11.052Z,705.00
2024-03-12T10:04:11.158Z,716.00
2024-03-12T10:05:11.522Z,734.00
2024-03-12T10:06:11.234Z,745.00
2024-03-12T10:07:11.256Z,755.00
2024-03-12T10:08:11.233Z,773.00
2024-03-12T10:09:14.234Z,782.00
2024-03-12T10:10:11.556Z,786.00
2024-03-12T10:11:11.350Z,788.00
2024-03-12T10:12:11.304Z,805.00
2024-03-12T10:13:11.394Z,817.00
2024-03-12T10:14:11.963Z,821.00
2024-03-12T10:15:11.615Z,840.00
2024-03-12T10:16:11.285Z,832.00
2024-03-12T10:17:11.310Z,846.00
2024-03-12T10:18:11.391Z,849.00
2024-03-12T10:19:11.476Z,861.00
2024-03-12T10:20:12.157Z,855.00
2024-03-12T10:21:12.183Z,871.00
2024-03-12T10:22:13.373Z,869.00
2024-03-12T10:23:11.349Z,879.00
2024-03-12T10:24:11.478Z,880.00
2024-03-12T10:25:11.753Z,881.00
2024-03-12T10:26:11.479Z,909.00
2024-03-12T10:27:11.502Z,898.00
2024-03-12T10:28:11.341Z,909.00
2024-03-12T10:29:11.483Z,915.00
2024-03-12T10:30:11.276Z,917.00
2024-03-12T10:31:12.379Z,921.00
2024-03-12T10:32:11.310Z,935.00
2024-03-12T10:33:11.469Z,928.00
2024-03-12T10:34:11.533Z,956.00
2024-03-12T10:35:11.437Z,963.00
2024-03-12T10:36:17.927Z,969.00
2024-03-12T10:37:13.022Z,970.00
2024-03-12T10:38:11.465Z,971.00
2024-03-12T10:39:11.438Z,975.00
2024-03-12T10:40:12.077Z,973.00
2024-03-12T10:41:11.398Z,966.00
2024-03-12T10:42:11.433Z,967.00
2024-03-12T10:43:11.421Z,959.00
2024-03-12T10:44:11.627Z,958.00
2024-03-12T10:45:11.485Z,928.00
2024-03-12T10:46:11.521Z,939.00
2024-03-12T10:47:11.423Z,930.00
2024-03-12T10:48:11.483Z,911.00
2024-03-12T10:49:11.521Z,917.00
2024-03-12T10:50:11.510Z,901.00
2024-03-12T10:51:11.494Z,894.00
2024-03-12T10:52:12.131Z,895.00
2024-03-12T10:53:11.981Z,884.00
2024-03-12T10:54:11.409Z,878.00
2024-03-12T10:55:12.110Z,869.00
2024-03-12T10:56:14.961Z,847.00
2024-03-12T10:57:11.485Z,847.00
2024-03-12T10:58:11.522Z,837.00
2024-03-12T10:59:11.544Z,826.00
2024-03-12T11:00:11.437Z,815.00
2024-03-12T11:01:11.654Z,816.00
2024-03-12T11:02:11.429Z,801.00
2024-03-12T11:03:11.430Z,801.00
2024-03-12T11:04:11.631Z,792.00
2024-03-12T11:05:11.467Z,761.00
2024-03-12T11:06:11.859Z,765.00
2024-03-12T11:07:11.531Z,758.00
2024-03-12T11:08:11.615Z,741.00
2024-03-12T11:09:11.590Z,731.00
2024-03-12T11:10:11.643Z,724.00
2024-03-12T11:11:11.529Z,715.00
2024-03-12T11:12:11.452Z,695.00
2024-03-12T11:13:11.546Z,688.00
2024-03-12T11:14:13.005Z,700.00
2024-03-12T11:15:12.512Z,690.00
2024-03-12T11:16:13.597Z,686.00
2024-03-12T11:17:11.646Z,682.00
2024-03-12T11:18:11.820Z,682.00
2024-03-12T11:19:12.618Z,677.00
2024-03-12T11:20:11.870Z,669.00
2024-03-12T11:21:11.863Z,676.00
2024-03-12T11:22:12.095Z,680.00
2024-03-12T11:23:12.035Z,683.00
2024-03-12T11:24:14.047Z,680.00
2024-03-12T11:25:12.172Z,682.00
2024-03-12T11:26:12.320Z,674.00
2024-03-12T11:27:12.253Z,689.00
2024-03-12T11:28:12.366Z,687.00
2024-03-12T11:29:12.345Z,692.00
2024-03-12T11:30:13.172Z,694.00
2024-03-12T11:31:12.622Z,693.00
2024-03-12T11:32:13.534Z,695.00
2024-03-12T11:33:12.588Z,696.00
2024-03-12T11:34:12.785Z,691.00
2024-03-12T11:35:13.480Z,697.00
2024-03-12T11:36:12.792Z,697.00
2024-03-12T11:37:12.919Z,699.00
2024-03-12T11:38:17.299Z,692.00
2024-03-12T11:39:13.283Z,693.00
2024-03-12T11:40:12.958Z,695.00
2024-03-12T11:41:12.921Z,698.00
2024-03-12T11:42:17.540Z,701.00
2024-03-12T11:43:13.197Z,693.00
2024-03-12T11:44:12.970Z,696.00
2024-03-12T11:45:12.920Z,699.00
2024-03-12T11:46:13.098Z,702.00
2024-03-12T11:47:12.983Z,715.00
2024-03-12T11:48:13.049Z,713.00
2024-03-12T11:49:14.675Z,715.00
2024-03-12T11:50:12.922Z,718.00
2024-03-12T11:51:13.540Z,716.00
2024-03-12T11:52:13.030Z,710.00
2024-03-12T11:53:13.015Z,717.00
2024-03-12T11:54:13.648Z,710.00
2024-03-12T11:55:13.771Z,713.00
2024-03-12T11:56:12.937Z,727.00
2024-03-12T11:57:13.269Z,718.00
2024-03-12T11:58:13.209Z,711.00
2024-03-12T11:59:19.895Z,720.00
2024-03-12T12:00:16.372Z,720.00
2024-03-12T12:01:13.205Z,722.00
2024-03-12T12:02:13.341Z,727.00
2024-03-12T12:03:13.487Z,733.00
2024-03-12T12:04:13.225Z,742.00
2024-03-12T12:05:13.196Z,753.00
2024-03-12T12:06:13.163Z,759.00
2024-03-12T12:07:13.574Z,761.00
2024-03-12T12:08:13.975Z,762.00
2024-03-12T12:09:13.215Z,768.00
2024-03-12T12:10:13.325Z,755.00
2024-03-12T12:11:13.274Z,773.00
2024-03-12T12:12:13.267Z,763.00
2024-03-12T12:13:13.655Z,784.00
2024-03-12T12:14:13.171Z,789.00
2024-03-12T12:15:13.245Z,787.00
2024-03-12T12:16:13.344Z,789.00
2024-03-12T12:17:13.177Z,781.00
2024-03-12T12:18:13.550Z,775.00
2024-03-12T12:19:18.508Z,790.00
2024-03-12T12:20:14.229Z,790.00
2024-03-12T12:21:13.199Z,791.00
2024-03-12T12:22:14.046Z,793.00
2024-03-12T12:23:13.182Z,791.00
2024-03-12T12:24:13.220Z,797.00
2024-03-12T12:25:13.316Z,797.00
2024-03-12T12:26:13.184Z,798.00
2024-03-12T12:27:13.249Z,806.00
2024-03-12T12:28:13.341Z,811.00